sensor_id;sensor_type;location;lat;lon;timestamp;P1;durP1;ratioP1;P2;durP2;ratioP2
21894;SDS011;11112;51.270;7.224;2023-07-08T00:00:44;3.45;;;2.28;;
21894;SDS011;11112;51.270;7.224;2023-07-08T00:03:14;6.05;;;2.47;;
21894;SDS011;11112;51.270;7.224;2023-07-08T00:05:41;3.58;;;2.28;;
21894;SDS011;11112;51.270;7.224;2023-07-08T00:08:09;3.90;;;2.63;;
21894;SDS011;11112;51.270;7.224;2023-07-08T00:10:39;3.33;;;2.10;;
21894;SDS011;11112;51.270;7.224;2023-07-08T00:13:07;3.45;;;2.30;;
21894;SDS011;11112;51.270;7.224;2023-07-08T00:15:36;3.85;;;2.42;;
21894;SDS011;11112;51.270;7.224;2023-07-08T00:18:08;6.18;;;2.40;;
21894;SDS011;11112;51.270;7.224;2023-07-08T00:20:41;5.97;;;2.38;;
21894;SDS011;11112;51.270;7.224;2023-07-08T00:23:10;3.88;;;2.50;;
21894;SDS011;11112;51.270;7.224;2023-07-08T00:25:37;3.10;;;2.22;;
21894;SDS011;11112;51.270;7.224;2023-07-08T00:28:08;5.30;;;2.40;;
21894;SDS011;11112;51.270;7.224;2023-07-08T00:30:36;3.65;;;2.17;;
21894;SDS011;11112;51.270;7.224;2023-07-08T00:33:03;5.68;;;2.33;;
21894;SDS011;11112;51.270;7.224;2023-07-08T00:35:33;3.38;;;2.40;;
21894;SDS011;11112;51.270;7.224;2023-07-08T00:38:04;3.63;;;2.28;;
21894;SDS011;11112;51.270;7.224;2023-07-08T00:40:47;6.07;;;2.30;;
21894;SDS011;11112;51.270;7.224;2023-07-08T00:43:17;4.47;;;2.22;;
21894;SDS011;11112;51.270;7.224;2023-07-08T00:45:46;3.85;;;2.40;;
21894;SDS011;11112;51.270;7.224;2023-07-08T00:48:19;4.97;;;2.28;;
21894;SDS011;11112;51.270;7.224;2023-07-08T00:50:50;5.00;;;2.30;;
21894;SDS011;11112;51.270;7.224;2023-07-08T00:53:26;4.68;;;2.40;;
21894;SDS011;11112;51.270;7.224;2023-07-08T00:56:04;4.25;;;2.70;;
21894;SDS011;11112;51.270;7.224;2023-07-08T00:58:36;4.10;;;2.30;;
21894;SDS011;11112;51.270;7.224;2023-07-08T01:01:07;3.60;;;2.50;;
21894;SDS011;11112;51.270;7.224;2023-07-08T01:03:36;4.20;;;2.33;;
21894;SDS011;11112;51.270;7.224;2023-07-08T01:06:11;3.65;;;2.42;;
21894;SDS011;11112;51.270;7.224;2023-07-08T01:08:39;3.58;;;2.50;;
21894;SDS011;11112;51.270;7.224;2023-07-08T01:11:07;4.55;;;2.42;;
21894;SDS011;11112;51.270;7.224;2023-07-08T01:13:34;4.68;;;2.60;;
21894;SDS011;11112;51.270;7.224;2023-07-08T01:16:05;3.42;;;2.38;;
21894;SDS011;11112;51.270;7.224;2023-07-08T01:18:33;4.65;;;2.47;;
21894;SDS011;11112;51.270;7.224;2023-07-08T01:23:33;4.53;;;2.40;;
21894;SDS011;11112;51.270;7.224;2023-07-08T01:26:02;4.82;;;2.60;;
21894;SDS011;11112;51.270;7.224;2023-07-08T01:28:30;4.50;;;2.63;;
21894;SDS011;11112;51.270;7.224;2023-07-08T01:30:57;3.78;;;2.50;;
21894;SDS011;11112;51.270;7.224;2023-07-08T01:33:25;4.55;;;2.60;;
21894;SDS011;11112;51.270;7.224;2023-07-08T01:35:52;5.28;;;2.70;;
21894;SDS011;11112;51.270;7.224;2023-07-08T01:38:21;5.32;;;2.72;;
21894;SDS011;11112;51.270;7.224;2023-07-08T01:40:54;6.45;;;2.55;;
21894;SDS011;11112;51.270;7.224;2023-07-08T01:43:22;4.40;;;2.55;;
21894;SDS011;11112;51.270;7.224;2023-07-08T01:45:50;6.75;;;2.58;;
21894;SDS011;11112;51.270;7.224;2023-07-08T01:48:19;5.10;;;2.67;;
21894;SDS011;11112;51.270;7.224;2023-07-08T01:50:49;3.78;;;2.50;;
21894;SDS011;11112;51.270;7.224;2023-07-08T01:55:56;4.80;;;2.67;;
21894;SDS011;11112;51.270;7.224;2023-07-08T01:58:23;4.45;;;2.75;;
21894;SDS011;11112;51.270;7.224;2023-07-08T02:00:51;3.95;;;2.65;;
21894;SDS011;11112;51.270;7.224;2023-07-08T02:03:19;6.15;;;2.70;;
21894;SDS011;11112;51.270;7.224;2023-07-08T02:05:46;4.53;;;2.70;;
21894;SDS011;11112;51.270;7.224;2023-07-08T02:08:13;4.88;;;2.67;;
21894;SDS011;11112;51.270;7.224;2023-07-08T02:10:41;5.43;;;2.72;;
21894;SDS011;11112;51.270;7.224;2023-07-08T02:13:11;5.07;;;2.90;;
21894;SDS011;11112;51.270;7.224;2023-07-08T02:15:39;4.25;;;2.70;;
21894;SDS011;11112;51.270;7.224;2023-07-08T02:18:09;5.97;;;2.72;;
21894;SDS011;11112;51.270;7.224;2023-07-08T02:20:36;4.43;;;2.78;;
21894;SDS011;11112;51.270;7.224;2023-07-08T02:23:03;4.38;;;2.63;;
21894;SDS011;11112;51.270;7.224;2023-07-08T02:25:32;6.35;;;3.00;;
21894;SDS011;11112;51.270;7.224;2023-07-08T02:28:01;5.80;;;2.92;;
21894;SDS011;11112;51.270;7.224;2023-07-08T02:30:31;4.53;;;3.08;;
21894;SDS011;11112;51.270;7.224;2023-07-08T02:33:01;4.45;;;2.97;;
21894;SDS011;11112;51.270;7.224;2023-07-08T02:35:31;4.35;;;3.00;;
21894;SDS011;11112;51.270;7.224;2023-07-08T02:37:58;6.35;;;2.88;;
21894;SDS011;11112;51.270;7.224;2023-07-08T02:40:26;6.13;;;3.40;;
21894;SDS011;11112;51.270;7.224;2023-07-08T02:42:55;4.35;;;3.13;;
21894;SDS011;11112;51.270;7.224;2023-07-08T02:45:23;5.18;;;3.10;;
21894;SDS011;11112;51.270;7.224;2023-07-08T02:47:53;4.18;;;2.90;;
21894;SDS011;11112;51.270;7.224;2023-07-08T02:50:24;5.50;;;3.20;;
21894;SDS011;11112;51.270;7.224;2023-07-08T02:52:51;5.40;;;3.13;;
21894;SDS011;11112;51.270;7.224;2023-07-08T02:55:23;6.28;;;3.45;;
21894;SDS011;11112;51.270;7.224;2023-07-08T02:57:50;4.85;;;2.90;;
21894;SDS011;11112;51.270;7.224;2023-07-08T03:00:17;5.20;;;3.10;;
21894;SDS011;11112;51.270;7.224;2023-07-08T03:02:45;4.55;;;3.20;;
21894;SDS011;11112;51.270;7.224;2023-07-08T03:05:14;3.92;;;2.80;;
21894;SDS011;11112;51.270;7.224;2023-07-08T03:07:43;5.57;;;2.97;;
21894;SDS011;11112;51.270;7.224;2023-07-08T03:10:10;5.10;;;2.90;;
21894;SDS011;11112;51.270;7.224;2023-07-08T03:12:37;5.07;;;3.05;;
21894;SDS011;11112;51.270;7.224;2023-07-08T03:15:06;4.50;;;3.30;;
21894;SDS011;11112;51.270;7.224;2023-07-08T03:17:37;5.25;;;3.05;;
21894;SDS011;11112;51.270;7.224;2023-07-08T03:20:06;6.10;;;3.15;;
21894;SDS011;11112;51.270;7.224;2023-07-08T03:22:37;4.45;;;3.03;;
21894;SDS011;11112;51.270;7.224;2023-07-08T03:25:07;5.95;;;3.17;;
21894;SDS011;11112;51.270;7.224;2023-07-08T03:27:34;5.20;;;3.20;;
21894;SDS011;11112;51.270;7.224;2023-07-08T03:30:03;7.15;;;3.05;;
21894;SDS011;11112;51.270;7.224;2023-07-08T03:32:31;4.72;;;3.22;;
21894;SDS011;11112;51.270;7.224;2023-07-08T03:35:00;6.35;;;3.35;;
21894;SDS011;11112;51.270;7.224;2023-07-08T03:37:28;4.60;;;3.30;;
21894;SDS011;11112;51.270;7.224;2023-07-08T03:39:57;6.25;;;3.17;;
21894;SDS011;11112;51.270;7.224;2023-07-08T03:42:25;5.90;;;3.30;;
21894;SDS011;11112;51.270;7.224;2023-07-08T03:44:54;6.88;;;3.53;;
21894;SDS011;11112;51.270;7.224;2023-07-08T03:47:23;5.60;;;2.97;;
21894;SDS011;11112;51.270;7.224;2023-07-08T03:49:50;4.15;;;3.00;;
21894;SDS011;11112;51.270;7.224;2023-07-08T03:52:19;9.50;;;3.42;;
21894;SDS011;11112;51.270;7.224;2023-07-08T03:54:47;6.13;;;3.40;;
21894;SDS011;11112;51.270;7.224;2023-07-08T03:57:16;4.38;;;3.05;;
21894;SDS011;11112;51.270;7.224;2023-07-08T03:59:45;8.43;;;3.35;;
21894;SDS011;11112;51.270;7.224;2023-07-08T04:02:14;5.45;;;3.35;;
21894;SDS011;11112;51.270;7.224;2023-07-08T04:04:43;3.78;;;3.00;;
21894;SDS011;11112;51.270;7.224;2023-07-08T04:07:11;6.03;;;3.53;;
21894;SDS011;11112;51.270;7.224;2023-07-08T04:09:39;4.95;;;3.30;;
21894;SDS011;11112;51.270;7.224;2023-07-08T04:12:09;5.28;;;3.10;;
21894;SDS011;11112;51.270;7.224;2023-07-08T04:14:40;6.05;;;3.47;;
21894;SDS011;11112;51.270;7.224;2023-07-08T04:17:07;4.72;;;3.30;;
21894;SDS011;11112;51.270;7.224;2023-07-08T04:19:36;5.53;;;3.58;;
21894;SDS011;11112;51.270;7.224;2023-07-08T04:22:04;6.97;;;3.60;;
21894;SDS011;11112;51.270;7.224;2023-07-08T04:24:33;4.63;;;3.30;;
21894;SDS011;11112;51.270;7.224;2023-07-08T04:27:03;5.50;;;3.67;;
21894;SDS011;11112;51.270;7.224;2023-07-08T04:29:31;6.40;;;3.28;;
21894;SDS011;11112;51.270;7.224;2023-07-08T04:32:01;5.50;;;3.70;;
21894;SDS011;11112;51.270;7.224;2023-07-08T04:34:29;8.25;;;3.72;;
21894;SDS011;11112;51.270;7.224;2023-07-08T04:36:57;5.40;;;3.67;;
21894;SDS011;11112;51.270;7.224;2023-07-08T04:39:26;4.80;;;3.60;;
21894;SDS011;11112;51.270;7.224;2023-07-08T04:41:54;6.13;;;3.63;;
21894;SDS011;11112;51.270;7.224;2023-07-08T04:44:23;6.82;;;3.58;;
21894;SDS011;11112;51.270;7.224;2023-07-08T04:46:53;4.95;;;3.30;;
21894;SDS011;11112;51.270;7.224;2023-07-08T04:49:24;4.65;;;3.67;;
21894;SDS011;11112;51.270;7.224;2023-07-08T04:51:59;5.60;;;3.70;;
21894;SDS011;11112;51.270;7.224;2023-07-08T04:54:28;4.47;;;3.55;;
21894;SDS011;11112;51.270;7.224;2023-07-08T04:56:56;5.30;;;3.60;;
21894;SDS011;11112;51.270;7.224;2023-07-08T04:59:24;5.15;;;3.35;;
21894;SDS011;11112;51.270;7.224;2023-07-08T05:01:52;7.28;;;3.85;;
21894;SDS011;11112;51.270;7.224;2023-07-08T05:04:20;7.10;;;3.90;;
21894;SDS011;11112;51.270;7.224;2023-07-08T05:06:50;6.50;;;3.85;;
21894;SDS011;11112;51.270;7.224;2023-07-08T05:09:18;4.90;;;3.60;;
21894;SDS011;11112;51.270;7.224;2023-07-08T05:11:50;5.63;;;3.63;;
21894;SDS011;11112;51.270;7.224;2023-07-08T05:14:18;7.20;;;3.88;;
21894;SDS011;11112;51.270;7.224;2023-07-08T05:16:47;5.80;;;3.50;;
21894;SDS011;11112;51.270;7.224;2023-07-08T05:19:16;7.03;;;4.03;;
21894;SDS011;11112;51.270;7.224;2023-07-08T05:21:45;5.40;;;3.92;;
21894;SDS011;11112;51.270;7.224;2023-07-08T05:24:14;5.38;;;3.80;;
21894;SDS011;11112;51.270;7.224;2023-07-08T05:26:41;7.25;;;4.00;;
21894;SDS011;11112;51.270;7.224;2023-07-08T05:29:08;7.60;;;3.88;;
21894;SDS011;11112;51.270;7.224;2023-07-08T05:31:36;6.63;;;4.00;;
21894;SDS011;11112;51.270;7.224;2023-07-08T05:34:03;6.10;;;3.60;;
21894;SDS011;11112;51.270;7.224;2023-07-08T05:36:31;4.95;;;3.55;;
21894;SDS011;11112;51.270;7.224;2023-07-08T05:38:59;5.32;;;4.10;;
21894;SDS011;11112;51.270;7.224;2023-07-08T05:41:31;6.85;;;4.18;;
21894;SDS011;11112;51.270;7.224;2023-07-08T05:44:01;6.70;;;4.25;;
21894;SDS011;11112;51.270;7.224;2023-07-08T05:46:30;5.57;;;3.63;;
21894;SDS011;11112;51.270;7.224;2023-07-08T05:48:59;5.28;;;3.70;;
21894;SDS011;11112;51.270;7.224;2023-07-08T05:51:28;6.57;;;4.13;;
21894;SDS011;11112;51.270;7.224;2023-07-08T05:54:00;6.95;;;3.88;;
21894;SDS011;11112;51.270;7.224;2023-07-08T05:56:28;5.35;;;3.55;;
21894;SDS011;11112;51.270;7.224;2023-07-08T05:58:59;5.97;;;4.00;;
21894;SDS011;11112;51.270;7.224;2023-07-08T06:01:27;4.88;;;3.60;;
21894;SDS011;11112;51.270;7.224;2023-07-08T06:03:55;6.53;;;3.90;;
21894;SDS011;11112;51.270;7.224;2023-07-08T06:06:24;5.25;;;3.92;;
21894;SDS011;11112;51.270;7.224;2023-07-08T06:08:55;4.70;;;3.65;;
21894;SDS011;11112;51.270;7.224;2023-07-08T06:11:26;5.03;;;3.47;;
21894;SDS011;11112;51.270;7.224;2023-07-08T06:13:55;6.10;;;3.83;;
21894;SDS011;11112;51.270;7.224;2023-07-08T06:16:23;6.28;;;3.67;;
21894;SDS011;11112;51.270;7.224;2023-07-08T06:18:50;5.13;;;3.80;;
21894;SDS011;11112;51.270;7.224;2023-07-08T06:21:18;6.38;;;3.75;;
21894;SDS011;11112;51.270;7.224;2023-07-08T06:23:49;6.22;;;4.18;;
21894;SDS011;11112;51.270;7.224;2023-07-08T06:26:17;6.35;;;4.60;;
21894;SDS011;11112;51.270;7.224;2023-07-08T06:28:46;6.05;;;4.10;;
21894;SDS011;11112;51.270;7.224;2023-07-08T06:31:13;6.53;;;4.63;;
21894;SDS011;11112;51.270;7.224;2023-07-08T06:33:40;6.28;;;4.50;;
21894;SDS011;11112;51.270;7.224;2023-07-08T06:36:09;9.23;;;5.40;;
21894;SDS011;11112;51.270;7.224;2023-07-08T06:38:37;8.00;;;4.35;;
21894;SDS011;11112;51.270;7.224;2023-07-08T06:41:04;8.07;;;4.15;;
21894;SDS011;11112;51.270;7.224;2023-07-08T06:43:32;7.65;;;4.63;;
21894;SDS011;11112;51.270;7.224;2023-07-08T06:46:01;7.75;;;4.68;;
21894;SDS011;11112;51.270;7.224;2023-07-08T06:48:31;8.77;;;4.30;;
21894;SDS011;11112;51.270;7.224;2023-07-08T06:50:59;6.40;;;4.38;;
21894;SDS011;11112;51.270;7.224;2023-07-08T06:53:27;7.95;;;4.38;;
21894;SDS011;11112;51.270;7.224;2023-07-08T06:55:55;8.18;;;4.90;;
21894;SDS011;11112;51.270;7.224;2023-07-08T06:58:23;7.80;;;4.60;;
21894;SDS011;11112;51.270;7.224;2023-07-08T07:00:50;8.00;;;4.40;;
21894;SDS011;11112;51.270;7.224;2023-07-08T07:03:19;7.93;;;4.90;;
21894;SDS011;11112;51.270;7.224;2023-07-08T07:05:47;6.40;;;4.78;;
21894;SDS011;11112;51.270;7.224;2023-07-08T07:08:14;7.38;;;4.72;;
21894;SDS011;11112;51.270;7.224;2023-07-08T07:10:42;8.70;;;4.75;;
21894;SDS011;11112;51.270;7.224;2023-07-08T07:13:10;7.82;;;4.85;;
21894;SDS011;11112;51.270;7.224;2023-07-08T07:15:40;6.78;;;4.72;;
21894;SDS011;11112;51.270;7.224;2023-07-08T07:18:08;8.57;;;4.90;;
21894;SDS011;11112;51.270;7.224;2023-07-08T07:20:46;5.80;;;4.70;;
21894;SDS011;11112;51.270;7.224;2023-07-08T07:23:16;8.00;;;4.90;;
21894;SDS011;11112;51.270;7.224;2023-07-08T07:25:46;7.38;;;4.85;;
21894;SDS011;11112;51.270;7.224;2023-07-08T07:28:13;8.75;;;4.63;;
21894;SDS011;11112;51.270;7.224;2023-07-08T07:30:43;7.78;;;4.57;;
21894;SDS011;11112;51.270;7.224;2023-07-08T07:33:12;9.48;;;4.95;;
21894;SDS011;11112;51.270;7.224;2023-07-08T07:35:44;9.55;;;4.80;;
21894;SDS011;11112;51.270;7.224;2023-07-08T07:38:13;6.10;;;4.90;;
21894;SDS011;11112;51.270;7.224;2023-07-08T07:40:42;9.32;;;5.10;;
21894;SDS011;11112;51.270;7.224;2023-07-08T07:43:11;8.25;;;5.00;;
21894;SDS011;11112;51.270;7.224;2023-07-08T07:45:38;8.30;;;4.93;;
21894;SDS011;11112;51.270;7.224;2023-07-08T07:48:06;6.97;;;4.72;;
21894;SDS011;11112;51.270;7.224;2023-07-08T07:50:34;9.27;;;4.88;;
21894;SDS011;11112;51.270;7.224;2023-07-08T07:53:05;7.93;;;4.90;;
21894;SDS011;11112;51.270;7.224;2023-07-08T07:55:33;7.60;;;4.65;;
21894;SDS011;11112;51.270;7.224;2023-07-08T07:58:00;11.13;;;5.13;;
21894;SDS011;11112;51.270;7.224;2023-07-08T08:00:28;6.97;;;4.80;;
21894;SDS011;11112;51.270;7.224;2023-07-08T08:02:56;6.72;;;5.00;;
21894;SDS011;11112;51.270;7.224;2023-07-08T08:05:26;8.07;;;5.10;;
21894;SDS011;11112;51.270;7.224;2023-07-08T08:07:55;9.23;;;4.47;;
21894;SDS011;11112;51.270;7.224;2023-07-08T08:10:24;6.40;;;4.70;;
21894;SDS011;11112;51.270;7.224;2023-07-08T08:12:51;7.28;;;4.80;;
21894;SDS011;11112;51.270;7.224;2023-07-08T08:15:18;8.60;;;5.07;;
21894;SDS011;11112;51.270;7.224;2023-07-08T08:17:47;7.07;;;4.70;;
21894;SDS011;11112;51.270;7.224;2023-07-08T08:20:20;7.25;;;4.75;;
21894;SDS011;11112;51.270;7.224;2023-07-08T08:22:49;6.72;;;5.00;;
21894;SDS011;11112;51.270;7.224;2023-07-08T08:25:17;7.93;;;4.97;;
21894;SDS011;11112;51.270;7.224;2023-07-08T08:27:48;7.47;;;4.30;;
21894;SDS011;11112;51.270;7.224;2023-07-08T08:30:16;7.03;;;4.70;;
21894;SDS011;11112;51.270;7.224;2023-07-08T08:32:46;7.30;;;4.93;;
21894;SDS011;11112;51.270;7.224;2023-07-08T08:35:13;7.70;;;5.07;;
21894;SDS011;11112;51.270;7.224;2023-07-08T08:37:41;7.50;;;4.80;;
21894;SDS011;11112;51.270;7.224;2023-07-08T08:40:11;7.25;;;4.85;;
21894;SDS011;11112;51.270;7.224;2023-07-08T08:42:43;8.05;;;5.10;;
21894;SDS011;11112;51.270;7.224;2023-07-08T08:45:18;6.60;;;4.50;;
21894;SDS011;11112;51.270;7.224;2023-07-08T08:47:51;6.67;;;4.90;;
21894;SDS011;11112;51.270;7.224;2023-07-08T08:50:28;8.05;;;4.97;;
21894;SDS011;11112;51.270;7.224;2023-07-08T08:53:01;6.78;;;4.65;;
21894;SDS011;11112;51.270;7.224;2023-07-08T08:55:35;8.95;;;4.63;;
21894;SDS011;11112;51.270;7.224;2023-07-08T08:58:09;10.82;;;4.60;;
21894;SDS011;11112;51.270;7.224;2023-07-08T09:00:51;7.32;;;4.40;;
21894;SDS011;11112;51.270;7.224;2023-07-08T09:03:32;7.68;;;4.30;;
21894;SDS011;11112;51.270;7.224;2023-07-08T09:06:09;6.70;;;3.95;;
21894;SDS011;11112;51.270;7.224;2023-07-08T09:08:39;7.15;;;3.88;;
21894;SDS011;11112;51.270;7.224;2023-07-08T09:11:11;7.65;;;4.03;;
21894;SDS011;11112;51.270;7.224;2023-07-08T09:16:25;5.13;;;3.40;;
21894;SDS011;11112;51.270;7.224;2023-07-08T09:19:08;7.47;;;3.58;;
21894;SDS011;11112;51.270;7.224;2023-07-08T09:21:41;4.68;;;3.40;;
21894;SDS011;11112;51.270;7.224;2023-07-08T09:24:16;7.13;;;4.00;;
21894;SDS011;11112;51.270;7.224;2023-07-08T09:26:53;8.00;;;3.63;;
21894;SDS011;11112;51.270;7.224;2023-07-08T09:29:30;6.95;;;3.88;;
21894;SDS011;11112;51.270;7.224;2023-07-08T09:32:01;5.82;;;3.58;;
21894;SDS011;11112;51.270;7.224;2023-07-08T09:34:45;5.65;;;3.38;;
21894;SDS011;11112;51.270;7.224;2023-07-08T09:37:26;5.78;;;3.88;;
21894;SDS011;11112;51.270;7.224;2023-07-08T09:39:58;4.70;;;3.25;;
21894;SDS011;11112;51.270;7.224;2023-07-08T09:42:29;6.82;;;3.83;;
21894;SDS011;11112;51.270;7.224;2023-07-08T09:45:01;5.10;;;3.28;;
21894;SDS011;11112;51.270;7.224;2023-07-08T09:47:43;5.30;;;3.33;;
21894;SDS011;11112;51.270;7.224;2023-07-08T09:50:21;7.57;;;3.63;;
21894;SDS011;11112;51.270;7.224;2023-07-08T09:53:11;5.78;;;3.17;;
21894;SDS011;11112;51.270;7.224;2023-07-08T09:55:40;6.30;;;3.60;;
21894;SDS011;11112;51.270;7.224;2023-07-08T09:58:09;6.68;;;3.28;;
21894;SDS011;11112;51.270;7.224;2023-07-08T10:00:44;9.13;;;3.70;;
21894;SDS011;11112;51.270;7.224;2023-07-08T10:03:22;5.75;;;3.55;;
21894;SDS011;11112;51.270;7.224;2023-07-08T10:05:54;5.53;;;3.20;;
21894;SDS011;11112;51.270;7.224;2023-07-08T10:08:28;8.23;;;3.63;;
21894;SDS011;11112;51.270;7.224;2023-07-08T10:11:10;5.20;;;3.22;;
21894;SDS011;11112;51.270;7.224;2023-07-08T10:13:57;8.05;;;3.58;;
21894;SDS011;11112;51.270;7.224;2023-07-08T10:16:33;8.55;;;3.40;;
21894;SDS011;11112;51.270;7.224;2023-07-08T10:19:07;4.80;;;3.25;;
21894;SDS011;11112;51.270;7.224;2023-07-08T10:21:42;7.13;;;3.55;;
21894;SDS011;11112;51.270;7.224;2023-07-08T10:24:27;5.05;;;3.28;;
21894;SDS011;11112;51.270;7.224;2023-07-08T10:27:08;5.68;;;3.33;;
21894;SDS011;11112;51.270;7.224;2023-07-08T10:29:48;6.32;;;3.22;;
21894;SDS011;11112;51.270;7.224;2023-07-08T10:32:32;6.55;;;3.40;;
21894;SDS011;11112;51.270;7.224;2023-07-08T10:37:51;7.68;;;2.97;;
21894;SDS011;11112;51.270;7.224;2023-07-08T10:40:41;5.72;;;3.17;;
21894;SDS011;11112;51.270;7.224;2023-07-08T10:43:20;7.72;;;3.30;;
21894;SDS011;11112;51.270;7.224;2023-07-08T10:46:09;4.53;;;3.05;;
21894;SDS011;11112;51.270;7.224;2023-07-08T10:48:56;6.20;;;3.13;;
21894;SDS011;11112;51.270;7.224;2023-07-08T10:51:38;6.25;;;3.40;;
21894;SDS011;11112;51.270;7.224;2023-07-08T10:54:21;4.97;;;3.20;;
21894;SDS011;11112;51.270;7.224;2023-07-08T10:57:10;5.68;;;3.65;;
21894;SDS011;11112;51.270;7.224;2023-07-08T10:59:53;5.88;;;3.38;;
21894;SDS011;11112;51.270;7.224;2023-07-08T11:02:52;6.07;;;3.45;;
21894;SDS011;11112;51.270;7.224;2023-07-08T11:06:08;4.47;;;3.20;;
21894;SDS011;11112;51.270;7.224;2023-07-08T11:08:41;7.28;;;3.15;;
21894;SDS011;11112;51.270;7.224;2023-07-08T11:11:15;5.70;;;3.10;;
21894;SDS011;11112;51.270;7.224;2023-07-08T11:14:03;7.85;;;3.33;;
21894;SDS011;11112;51.270;7.224;2023-07-08T11:16:38;4.60;;;3.05;;
21894;SDS011;11112;51.270;7.224;2023-07-08T11:19:15;7.10;;;3.30;;
21894;SDS011;11112;51.270;7.224;2023-07-08T11:21:50;4.72;;;3.08;;
21894;SDS011;11112;51.270;7.224;2023-07-08T11:24:22;6.25;;;3.33;;
21894;SDS011;11112;51.270;7.224;2023-07-08T11:26:58;4.07;;;3.00;;
21894;SDS011;11112;51.270;7.224;2023-07-08T11:29:35;4.78;;;2.95;;
21894;SDS011;11112;51.270;7.224;2023-07-08T11:32:08;5.40;;;3.00;;
21894;SDS011;11112;51.270;7.224;2023-07-08T11:34:46;6.38;;;2.83;;
21894;SDS011;11112;51.270;7.224;2023-07-08T11:37:19;5.97;;;3.00;;
21894;SDS011;11112;51.270;7.224;2023-07-08T11:39:52;7.22;;;3.15;;
21894;SDS011;11112;51.270;7.224;2023-07-08T11:42:22;5.55;;;3.40;;
21894;SDS011;11112;51.270;7.224;2023-07-08T11:45:01;7.05;;;3.20;;
21894;SDS011;11112;51.270;7.224;2023-07-08T11:47:44;6.95;;;3.08;;
21894;SDS011;11112;51.270;7.224;2023-07-08T11:52:52;7.80;;;3.17;;
21894;SDS011;11112;51.270;7.224;2023-07-08T11:55:26;5.70;;;3.03;;
21894;SDS011;11112;51.270;7.224;2023-07-08T11:58:05;7.53;;;3.25;;
21894;SDS011;11112;51.270;7.224;2023-07-08T12:00:35;5.05;;;3.22;;
21894;SDS011;11112;51.270;7.224;2023-07-08T12:03:13;4.40;;;2.85;;
21894;SDS011;11112;51.270;7.224;2023-07-08T12:05:48;5.63;;;3.00;;
21894;SDS011;11112;51.270;7.224;2023-07-08T12:08:23;4.70;;;3.33;;
21894;SDS011;11112;51.270;7.224;2023-07-08T12:11:07;5.55;;;3.38;;
21894;SDS011;11112;51.270;7.224;2023-07-08T12:13:38;6.78;;;3.20;;
21894;SDS011;11112;51.270;7.224;2023-07-08T12:16:07;6.40;;;4.03;;
21894;SDS011;11112;51.270;7.224;2023-07-08T12:18:40;7.07;;;3.20;;
21894;SDS011;11112;51.270;7.224;2023-07-08T12:21:11;5.32;;;2.90;;
21894;SDS011;11112;51.270;7.224;2023-07-08T12:23:45;4.57;;;3.13;;
21894;SDS011;11112;51.270;7.224;2023-07-08T12:26:13;4.35;;;2.80;;
21894;SDS011;11112;51.270;7.224;2023-07-08T12:28:42;6.47;;;2.60;;
21894;SDS011;11112;51.270;7.224;2023-07-08T12:31:13;5.18;;;2.80;;
21894;SDS011;11112;51.270;7.224;2023-07-08T12:33:44;5.15;;;3.00;;
21894;SDS011;11112;51.270;7.224;2023-07-08T12:36:16;4.65;;;3.40;;
21894;SDS011;11112;51.270;7.224;2023-07-08T12:38:49;5.70;;;2.95;;
21894;SDS011;11112;51.270;7.224;2023-07-08T12:41:18;4.88;;;2.80;;
21894;SDS011;11112;51.270;7.224;2023-07-08T12:43:48;7.35;;;3.00;;
21894;SDS011;11112;51.270;7.224;2023-07-08T12:46:17;6.88;;;2.90;;
21894;SDS011;11112;51.270;7.224;2023-07-08T12:48:48;7.15;;;2.90;;
21894;SDS011;11112;51.270;7.224;2023-07-08T12:51:16;5.85;;;2.95;;
21894;SDS011;11112;51.270;7.224;2023-07-08T12:53:49;7.03;;;2.85;;
21894;SDS011;11112;51.270;7.224;2023-07-08T12:56:18;5.35;;;3.05;;
21894;SDS011;11112;51.270;7.224;2023-07-08T12:58:49;5.20;;;2.90;;
21894;SDS011;11112;51.270;7.224;2023-07-08T13:01:19;5.70;;;2.90;;
21894;SDS011;11112;51.270;7.224;2023-07-08T13:03:50;4.85;;;3.08;;
21894;SDS011;11112;51.270;7.224;2023-07-08T13:06:21;5.55;;;3.20;;
21894;SDS011;11112;51.270;7.224;2023-07-08T13:08:54;4.95;;;2.88;;
21894;SDS011;11112;51.270;7.224;2023-07-08T13:11:27;6.97;;;2.50;;
21894;SDS011;11112;51.270;7.224;2023-07-08T13:13:56;4.80;;;2.63;;
21894;SDS011;11112;51.270;7.224;2023-07-08T13:16:28;6.05;;;2.83;;
21894;SDS011;11112;51.270;7.224;2023-07-08T13:18:59;7.45;;;2.92;;
21894;SDS011;11112;51.270;7.224;2023-07-08T13:21:27;8.25;;;2.85;;
21894;SDS011;11112;51.270;7.224;2023-07-08T13:23:57;5.88;;;2.75;;
21894;SDS011;11112;51.270;7.224;2023-07-08T13:26:26;5.95;;;3.00;;
21894;SDS011;11112;51.270;7.224;2023-07-08T13:28:59;5.32;;;3.13;;
21894;SDS011;11112;51.270;7.224;2023-07-08T13:31:32;5.95;;;2.70;;
21894;SDS011;11112;51.270;7.224;2023-07-08T13:34:06;6.22;;;2.72;;
21894;SDS011;11112;51.270;7.224;2023-07-08T13:36:36;4.93;;;3.10;;
21894;SDS011;11112;51.270;7.224;2023-07-08T13:39:15;4.93;;;3.10;;
21894;SDS011;11112;51.270;7.224;2023-07-08T13:41:47;8.63;;;3.35;;
21894;SDS011;11112;51.270;7.224;2023-07-08T13:44:16;6.13;;;3.15;;
21894;SDS011;11112;51.270;7.224;2023-07-08T13:46:46;7.10;;;2.92;;
21894;SDS011;11112;51.270;7.224;2023-07-08T13:49:21;7.90;;;3.35;;
21894;SDS011;11112;51.270;7.224;2023-07-08T13:52:06;7.55;;;3.22;;
21894;SDS011;11112;51.270;7.224;2023-07-08T13:54:45;7.10;;;3.40;;
21894;SDS011;11112;51.270;7.224;2023-07-08T13:57:16;6.65;;;3.50;;
21894;SDS011;11112;51.270;7.224;2023-07-08T13:59:46;7.13;;;3.75;;
21894;SDS011;11112;51.270;7.224;2023-07-08T14:02:17;6.00;;;3.35;;
21894;SDS011;11112;51.270;7.224;2023-07-08T14:04:48;5.78;;;3.50;;
21894;SDS011;11112;51.270;7.224;2023-07-08T14:07:18;8.35;;;3.40;;
21894;SDS011;11112;51.270;7.224;2023-07-08T14:09:48;7.75;;;3.60;;
21894;SDS011;11112;51.270;7.224;2023-07-08T14:12:19;5.73;;;3.50;;
21894;SDS011;11112;51.270;7.224;2023-07-08T14:14:46;6.47;;;3.13;;
21894;SDS011;11112;51.270;7.224;2023-07-08T14:17:22;6.10;;;3.25;;
21894;SDS011;11112;51.270;7.224;2023-07-08T14:19:54;7.13;;;3.42;;
21894;SDS011;11112;51.270;7.224;2023-07-08T14:22:23;6.47;;;3.60;;
21894;SDS011;11112;51.270;7.224;2023-07-08T14:24:53;5.72;;;3.50;;
21894;SDS011;11112;51.270;7.224;2023-07-08T14:27:27;5.53;;;3.22;;
21894;SDS011;11112;51.270;7.224;2023-07-08T14:29:56;5.00;;;3.05;;
21894;SDS011;11112;51.270;7.224;2023-07-08T14:32:26;7.55;;;3.30;;
21894;SDS011;11112;51.270;7.224;2023-07-08T14:35:00;6.40;;;3.50;;
21894;SDS011;11112;51.270;7.224;2023-07-08T14:37:40;5.70;;;3.20;;
21894;SDS011;11112;51.270;7.224;2023-07-08T14:43:00;6.05;;;3.50;;
21894;SDS011;11112;51.270;7.224;2023-07-08T14:45:30;6.25;;;3.25;;
21894;SDS011;11112;51.270;7.224;2023-07-08T14:48:07;7.28;;;3.70;;
21894;SDS011;11112;51.270;7.224;2023-07-08T14:50:35;6.35;;;3.55;;
21894;SDS011;11112;51.270;7.224;2023-07-08T14:53:03;7.32;;;3.55;;
21894;SDS011;11112;51.270;7.224;2023-07-08T14:55:33;6.18;;;3.33;;
21894;SDS011;11112;51.270;7.224;2023-07-08T14:58:01;8.27;;;3.60;;
21894;SDS011;11112;51.270;7.224;2023-07-08T15:00:30;8.68;;;3.72;;
21894;SDS011;11112;51.270;7.224;2023-07-08T15:02:57;6.32;;;3.75;;
21894;SDS011;11112;51.270;7.224;2023-07-08T15:05:26;6.38;;;3.42;;
21894;SDS011;11112;51.270;7.224;2023-07-08T15:07:55;6.95;;;3.90;;
21894;SDS011;11112;51.270;7.224;2023-07-08T15:10:26;8.60;;;3.65;;
21894;SDS011;11112;51.270;7.224;2023-07-08T15:12:57;6.60;;;3.60;;
21894;SDS011;11112;51.270;7.224;2023-07-08T15:15:27;6.50;;;3.45;;
21894;SDS011;11112;51.270;7.224;2023-07-08T15:17:56;7.38;;;3.70;;
21894;SDS011;11112;51.270;7.224;2023-07-08T15:20:24;8.25;;;3.97;;
21894;SDS011;11112;51.270;7.224;2023-07-08T15:22:52;6.90;;;3.75;;
21894;SDS011;11112;51.270;7.224;2023-07-08T15:25:22;11.65;;;4.05;;
21894;SDS011;11112;51.270;7.224;2023-07-08T15:27:52;7.65;;;3.72;;